Time;durP1;ratioP1;P1;durP2;ratioP2;P2;SDS_P1;SDS_P2;PMS_P1;PMS_P2;Temp;Humidity;BMP_temperature;BMP_pressure;BME280_temperature;BME280_humidity;BME280_pressure;Samples;Min_cycle;Max_cycle;Signal;HPM_P1;HPM_P2
2023/11/19 00:00:11;;;;;;;21.45;19.65;;;4.90;32.40;;;;;;4905886;29;20941;-38
2023/11/19 00:02:40;;;;;;;21.95;20.15;;;4.80;44.80;;;;;;4905336;29;20629;-38
2023/11/19 00:05:08;;;;;;;22.10;20.20;;;4.80;55.20;;;;;;4904845;29;20246;-38
2023/11/19 00:07:36;;;;;;;22.65;20.65;;;4.80;70.90;;;;;;4887762;29;20186;-38
2023/11/19 00:10:04;;;;;;;23.23;21.17;;;4.70;60.30;;;;;;4904807;29;20242;-38
2023/11/19 00:12:30;;;;;;;21.85;19.83;;;4.70;72.30;;;;;;4904779;29;20182;-38
2023/11/19 00:14:55;;;;;;;22.63;20.70;;;4.70;60.60;;;;;;4904324;29;20199;-38
2023/11/19 00:17:21;;;;;;;23.23;21.23;;;4.70;46.60;;;;;;4904743;29;20193;-39
2023/11/19 00:19:46;;;;;;;23.83;21.47;;;4.60;61.90;;;;;;4903951;29;20760;-38
2023/11/19 00:22:12;;;;;;;23.63;21.20;;;4.60;64.00;;;;;;4904942;29;20204;-38
2023/11/19 00:24:37;;;;;;;23.77;21.67;;;4.60;80.30;;;;;;4905332;29;20277;-37
2023/11/19 00:27:03;;;;;;;24.50;22.03;;;4.60;97.30;;;;;;4904352;29;20276;-37
2023/11/19 00:29:29;;;;;;;24.50;22.00;;;4.50;98.30;;;;;;4904188;29;20213;-39
2023/11/19 00:31:54;;;;;;;23.77;21.67;;;4.50;97.40;;;;;;4904077;29;20188;-38
2023/11/19 00:34:22;;;;;;;22.30;20.40;;;4.50;93.00;;;;;;4905224;29;20193;-37
2023/11/19 00:36:48;;;;;;;23.85;21.85;;;4.50;96.40;;;;;;4904311;29;20185;-38
2023/11/19 00:39:14;;;;;;;23.20;20.92;;;4.50;93.50;;;;;;4904793;29;20208;-38
2023/11/19 00:41:40;;;;;;;23.45;21.38;;;4.50;95.50;;;;;;4904633;29;20296;-37
2023/11/19 00:44:06;;;;;;;22.77;20.80;;;4.50;94.20;;;;;;4904583;29;20323;-39
2023/11/19 00:46:32;;;;;;;23.10;21.20;;;4.50;93.80;;;;;;4904432;29;20673;-38
2023/11/19 00:48:59;;;;;;;22.65;20.67;;;4.40;88.00;;;;;;4902446;29;20233;-37
2023/11/19 00:51:26;;;;;;;22.30;20.40;;;4.50;88.70;;;;;;4902759;29;20201;-38
2023/11/19 00:53:53;;;;;;;23.35;21.35;;;4.50;77.90;;;;;;4904296;29;20684;-37
2023/11/19 00:56:19;;;;;;;22.67;20.77;;;4.50;86.90;;;;;;4904226;29;20594;-38
2023/11/19 00:58:48;;;;;;;22.98;20.98;;;4.60;85.70;;;;;;4903805;29;20184;-39
2023/11/19 01:01:13;;;;;;;22.98;21.15;;;4.50;81.00;;;;;;4904040;29;20214;-37
2023/11/19 01:03:39;;;;;;;21.67;19.77;;;4.60;78.10;;;;;;4904084;29;20182;-37
2023/11/19 01:06:05;;;;;;;22.00;20.23;;;4.50;78.40;;;;;;4902791;29;20553;-37
2023/11/19 01:08:31;;;;;;;23.88;21.80;;;4.50;80.90;;;;;;4874175;29;20228;-37
2023/11/19 01:10:56;;;;;;;23.50;21.50;;;4.50;72.90;;;;;;4904113;29;20234;-38
2023/11/19 01:13:22;;;;;;;23.23;21.30;;;4.50;80.80;;;;;;4904446;29;20203;-39
2023/11/19 01:15:48;;;;;;;23.00;21.10;;;4.50;82.30;;;;;;4903328;29;20678;-38
2023/11/19 01:18:13;;;;;;;22.13;20.33;;;4.50;78.40;;;;;;4903688;29;20269;-39
2023/11/19 01:20:39;;;;;;;22.37;20.47;;;4.50;77.80;;;;;;4904427;29;20543;-37
2023/11/19 01:23:04;;;;;;;21.47;19.73;;;4.50;81.30;;;;;;4904358;29;20186;-37
2023/11/19 01:25:30;;;;;;;21.60;19.77;;;4.50;57.80;;;;;;4903804;29;20228;-38
2023/11/19 01:27:59;;;;;;;19.97;18.47;;;4.50;59.60;;;;;;4904224;29;20914;-38
2023/11/19 01:30:24;;;;;;;19.77;18.17;;;4.60;62.50;;;;;;4904585;29;20698;-38
2023/11/19 01:32:50;;;;;;;20.43;18.73;;;4.60;49.10;;;;;;4904555;29;20185;-37
2023/11/19 01:35:16;;;;;;;19.10;17.70;;;4.60;36.40;;;;;;4904224;29;20913;-38
2023/11/19 01:37:41;;;;;;;20.13;18.57;;;4.70;40.90;;;;;;4903664;29;20244;-38
2023/11/19 01:40:10;;;;;;;19.87;18.37;;;4.70;37.80;;;;;;4904408;29;20226;-38
2023/11/19 01:42:39;;;;;;;19.52;18.02;;;4.60;14.20;;;;;;4904046;29;20243;-38
2023/11/19 01:45:07;;;;;;;19.90;18.40;;;4.70;11.40;;;;;;4904131;29;20596;-38
2023/11/19 01:47:33;;;;;;;19.95;18.35;;;4.70;15.10;;;;;;4901122;29;20178;-39
2023/11/19 01:49:59;;;;;;;19.88;18.42;;;4.70;1.00;;;;;;4903417;29;20888;-38
2023/11/19 01:52:26;;;;;;;19.87;18.33;;;4.80;1.00;;;;;;4901361;29;20194;-37
2023/11/19 01:54:54;;;;;;;20.27;18.67;;;4.80;1.00;;;;;;4902916;29;20417;-38
2023/11/19 01:57:22;;;;;;;19.73;18.23;;;4.80;1.00;;;;;;4903562;29;20190;-37
2023/11/19 01:59:50;;;;;;;19.23;17.73;;;4.80;1.00;;;;;;4903371;29;20280;-39
2023/11/19 02:02:20;;;;;;;17.65;16.45;;;4.90;1.00;;;;;;4903158;29;20189;-38
2023/11/19 02:04:49;;;;;;;18.30;16.85;;;4.90;1.00;;;;;;4902044;29;20205;-38
2023/11/19 02:07:17;;;;;;;17.77;16.42;;;4.90;1.00;;;;;;4903638;29;20186;-38
2023/11/19 02:09:43;;;;;;;18.38;16.98;;;5.00;1.00;;;;;;4902586;29;20216;-37
2023/11/19 02:12:11;;;;;;;17.85;16.65;;;5.00;1.00;;;;;;4904994;29;20673;-37
2023/11/19 02:14:37;;;;;;;17.45;16.25;;;5.00;1.00;;;;;;4906475;29;20783;-37
2023/11/19 02:17:04;;;;;;;16.63;15.52;;;5.00;1.00;;;;;;4905861;29;20193;-38
2023/11/19 02:19:30;;;;;;;16.30;15.20;;;5.00;1.00;;;;;;4904799;29;20185;-38
2023/11/19 02:21:55;;;;;;;16.23;15.23;;;5.00;1.00;;;;;;4906052;29;20248;-38
2023/11/19 02:24:25;;;;;;;16.43;15.30;;;5.10;1.00;;;;;;4906327;29;20194;-38
2023/11/19 02:27:08;;;;;;;16.10;15.10;;;5.10;1.00;;;;;;4906361;29;20186;-37
2023/11/19 02:29:34;;;;;;;16.25;15.25;;;5.10;1.00;;;;;;4904547;29;20261;-37
2023/11/19 02:32:03;;;;;;;15.13;14.32;;;5.10;1.00;;;;;;4906337;29;20742;-38
2023/11/19 02:34:28;;;;;;;15.60;14.70;;;5.10;1.00;;;;;;4905934;29;21271;-38
2023/11/19 02:36:54;;;;;;;16.10;15.10;;;5.10;1.00;;;;;;4905450;29;20200;-38
2023/11/19 02:39:21;;;;;;;16.13;15.03;;;5.00;1.00;;;;;;4905719;29;20227;-37
2023/11/19 02:41:50;;;;;;;16.35;15.38;;;5.00;1.00;;;;;;4838852;29;1464932;-38
2023/11/19 02:44:16;;;;;;;15.32;14.52;;;5.10;1.00;;;;;;4889277;29;20272;-39
2023/11/19 02:46:42;;;;;;;15.80;14.90;;;5.10;1.00;;;;;;4907334;29;20301;-38
2023/11/19 02:49:07;;;;;;;16.00;15.10;;;5.10;1.00;;;;;;4905722;29;20186;-38
2023/11/19 02:51:34;;;;;;;15.90;15.00;;;5.10;1.00;;;;;;4906590;29;20213;-38
2023/11/19 02:54:00;;;;;;;15.77;14.88;;;5.20;1.00;;;;;;4906566;29;20182;-38
2023/11/19 02:56:26;;;;;;;15.90;15.00;;;5.20;1.00;;;;;;4904528;29;20198;-39
2023/11/19 02:58:52;;;;;;;16.23;15.23;;;5.30;1.00;;;;;;4906582;29;20276;-38
2023/11/19 03:01:35;;;;;;;15.63;14.73;;;5.30;1.00;;;;;;4906088;29;20549;-38
2023/11/19 03:04:02;;;;;;;15.90;15.00;;;5.30;1.00;;;;;;4888967;29;20193;-38
2023/11/19 03:06:28;;;;;;;15.05;14.07;;;5.30;1.00;;;;;;4903481;29;20214;-38
2023/11/19 03:08:55;;;;;;;14.80;14.00;;;5.30;1.00;;;;;;4905283;29;20191;-38
2023/11/19 03:11:21;;;;;;;15.70;14.80;;;5.30;1.00;;;;;;4905536;29;20264;-38
2023/11/19 03:14:14;;;;;;;16.15;15.25;;;5.40;1.00;;;;;;4906365;29;20933;-37
2023/11/19 03:16:40;;;;;;;15.20;14.40;;;5.40;1.00;;;;;;4905241;29;20187;-38
2023/11/19 03:19:05;;;;;;;15.23;14.33;;;5.40;1.00;;;;;;4904883;29;20223;-38
2023/11/19 03:21:31;;;;;;;14.90;14.00;;;5.50;1.00;;;;;;4905703;29;20237;-38
2023/11/19 03:24:00;;;;;;;15.15;14.23;;;5.40;1.00;;;;;;4905848;29;20625;-36
2023/11/19 03:26:27;;;;;;;15.25;14.25;;;5.50;1.00;;;;;;4904982;29;20205;-37
2023/11/19 03:28:53;;;;;;;15.07;14.23;;;5.50;1.00;;;;;;4906176;29;20194;-37
2023/11/19 03:31:18;;;;;;;14.50;13.80;;;5.50;1.00;;;;;;4904952;29;20812;-37
2023/11/19 03:33:45;;;;;;;15.27;14.37;;;5.60;1.00;;;;;;4906304;29;20430;-38
2023/11/19 03:36:10;;;;;;;15.02;14.13;;;5.50;1.00;;;;;;4905906;29;20640;-38
2023/11/19 03:38:36;;;;;;;14.70;13.90;;;5.50;1.00;;;;;;4904932;29;20254;-38
2023/11/19 03:41:13;;;;;;;14.50;13.70;;;5.60;1.00;;;;;;4905521;29;20229;-38
2023/11/19 03:43:40;;;;;;;15.52;14.63;;;5.60;1.00;;;;;;4906064;29;21017;-38
2023/11/19 03:46:21;;;;;;;15.13;14.23;;;5.60;1.00;;;;;;4906144;29;20335;-38
2023/11/19 03:48:48;;;;;;;15.10;14.20;;;5.60;1.00;;;;;;4904897;29;20199;-37
2023/11/19 03:51:15;;;;;;;14.90;14.10;;;5.60;1.00;;;;;;4904560;29;20752;-39
2023/11/19 03:53:45;;;;;;;15.15;14.25;;;5.60;1.00;;;;;;4905914;29;20186;-38
2023/11/19 03:56:11;;;;;;;14.93;14.05;;;5.70;1.00;;;;;;4905646;29;20183;-37
2023/11/19 03:58:38;;;;;;;15.07;14.23;;;5.70;1.00;;;;;;4905763;29;20201;-38
2023/11/19 04:01:04;;;;;;;15.73;14.82;;;5.70;1.00;;;;;;4904648;29;20661;-38
2023/11/19 04:03:29;;;;;;;14.77;13.80;;;5.70;1.00;;;;;;4905426;29;20208;-38
2023/11/19 04:05:56;;;;;;;15.93;14.97;;;5.60;1.00;;;;;;4905389;29;20769;-38
2023/11/19 04:08:22;;;;;;;15.38;14.48;;;5.60;1.00;;;;;;4905768;29;20206;-38
2023/11/19 04:10:48;;;;;;;17.00;15.60;;;5.60;1.00;;;;;;4905170;29;20221;-39
2023/11/19 04:13:13;;;;;;;15.77;14.67;;;5.60;1.00;;;;;;4905470;29;21318;-37
2023/11/19 04:15:39;;;;;;;15.57;14.57;;;5.50;1.00;;;;;;4905668;29;20422;-38
2023/11/19 04:18:04;;;;;;;15.57;14.67;;;5.60;1.00;;;;;;4903629;29;20186;-38
2023/11/19 04:20:31;;;;;;;15.43;14.43;;;5.60;1.00;;;;;;4904776;29;21161;-38
2023/11/19 04:22:57;;;;;;;15.57;14.27;;;5.60;1.00;;;;;;4905509;29;21004;-37
2023/11/19 04:25:25;;;;;;;16.40;15.33;;;5.60;1.00;;;;;;4905420;29;20209;-37
2023/11/19 04:27:54;;;;;;;15.77;14.77;;;5.60;1.00;;;;;;4904972;29;20492;-37
2023/11/19 04:30:23;;;;;;;15.05;14.05;;;5.60;1.00;;;;;;4904578;29;20225;-39
2023/11/19 04:32:49;;;;;;;15.98;14.98;;;5.60;1.00;;;;;;4904058;29;20241;-38
2023/11/19 04:35:14;;;;;;;15.40;14.50;;;5.70;1.00;;;;;;4905388;29;20710;-38
2023/11/19 04:37:41;;;;;;;15.57;14.57;;;5.60;1.00;;;;;;4904514;29;20175;-39
2023/11/19 04:40:07;;;;;;;15.65;14.75;;;5.50;1.00;;;;;;4904239;29;20194;-38
2023/11/19 04:42:33;;;;;;;17.00;15.90;;;5.50;1.00;;;;;;4904846;29;20230;-38
2023/11/19 04:44:59;;;;;;;17.17;16.10;;;5.40;1.00;;;;;;4904463;29;20284;-38
2023/11/19 04:47:25;;;;;;;17.43;16.40;;;5.40;1.00;;;;;;4887705;29;20224;-39
2023/11/19 04:49:50;;;;;;;17.50;16.30;;;5.40;11.50;;;;;;4904322;29;20213;-38
2023/11/19 04:52:16;;;;;;;17.43;16.20;;;5.30;50.90;;;;;;4904360;29;20195;-39
2023/11/19 04:54:45;;;;;;;17.70;16.60;;;5.30;89.50;;;;;;4903335;29;20254;-39
2023/11/19 04:57:12;;;;;;;17.42;16.33;;;5.20;99.90;;;;;;4904380;29;20219;-38
2023/11/19 04:59:38;;;;;;;17.48;16.17;;;5.20;99.90;;;;;;4886352;29;20276;-38
2023/11/19 05:02:04;;;;;;;17.35;16.25;;;5.10;99.90;;;;;;4904634;29;20194;-40
2023/11/19 05:04:30;;;;;;;16.90;15.80;;;5.10;99.90;;;;;;4904535;29;20348;-38
2023/11/19 05:06:56;;;;;;;17.33;16.27;;;5.10;99.90;;;;;;4904181;29;20286;-39
2023/11/19 05:09:21;;;;;;;17.17;15.97;;;5.10;99.90;;;;;;4903376;29;20710;-38
2023/11/19 05:11:48;;;;;;;18.60;17.30;;;5.10;99.90;;;;;;4904357;29;20186;-39
2023/11/19 05:14:13;;;;;;;16.67;15.68;;;5.00;99.90;;;;;;4903347;29;20198;-43
2023/11/19 05:16:40;;;;;;;17.23;16.07;;;5.10;99.90;;;;;;4903892;29;20190;-40
2023/11/19 05:19:06;;;;;;;17.38;16.17;;;5.00;99.90;;;;;;4903591;29;20217;-40
2023/11/19 05:21:32;;;;;;;17.37;16.00;;;5.00;99.90;;;;;;4903460;29;20278;-39
2023/11/19 05:23:57;;;;;;;17.50;16.40;;;4.90;99.90;;;;;;4901564;29;20442;-39
2023/11/19 05:26:24;;;;;;;17.73;16.53;;;4.90;99.90;;;;;;4904469;29;20213;-39
2023/11/19 05:28:50;;;;;;;18.20;16.95;;;4.90;99.90;;;;;;4902748;29;20610;-39
2023/11/19 05:31:17;;;;;;;18.73;17.33;;;4.90;99.90;;;;;;4904353;29;20264;-38
2023/11/19 05:33:43;;;;;;;18.13;16.90;;;4.90;99.90;;;;;;4904252;29;20445;-40
2023/11/19 05:36:12;;;;;;;19.40;17.95;;;4.90;99.90;;;;;;4903802;29;20222;-39
2023/11/19 05:38:38;;;;;;;18.38;16.98;;;4.80;99.90;;;;;;4904128;29;20185;-39
2023/11/19 05:41:04;;;;;;;17.60;16.40;;;4.90;99.90;;;;;;4904568;29;20563;-40
2023/11/19 05:43:30;;;;;;;18.20;16.90;;;4.80;99.90;;;;;;4903503;29;20241;-39
2023/11/19 05:45:56;;;;;;;19.38;17.88;;;4.80;99.90;;;;;;4908337;29;20222;-40
2023/11/19 05:48:22;;;;;;;18.47;17.17;;;4.80;99.90;;;;;;4908283;29;20221;-39
2023/11/19 05:50:49;;;;;;;17.63;16.37;;;4.80;99.90;;;;;;4907227;29;21242;-39
2023/11/19 05:53:16;;;;;;;18.77;17.30;;;4.80;99.90;;;;;;4907173;29;20536;-39
2023/11/19 05:55:55;;;;;;;19.00;17.55;;;4.80;99.90;;;;;;4907092;29;21024;-39
2023/11/19 05:58:30;;;;;;;18.98;17.58;;;4.80;99.90;;;;;;4907850;29;20209;-40
2023/11/19 06:00:57;;;;;;;19.60;17.90;;;4.70;99.90;;;;;;4904746;29;20549;-39
2023/11/19 06:03:22;;;;;;;17.98;16.58;;;4.80;99.90;;;;;;4906479;29;20197;-41
2023/11/19 06:05:49;;;;;;;17.97;16.67;;;4.80;99.90;;;;;;4906183;29;20264;-39
2023/11/19 06:08:17;;;;;;;17.65;16.45;;;4.80;99.90;;;;;;4905752;29;20186;-39
2023/11/19 06:10:50;;;;;;;19.00;17.60;;;4.80;99.90;;;;;;4907517;29;20214;-38
2023/11/19 06:13:17;;;;;;;17.13;16.02;;;4.90;99.90;;;;;;4907418;29;20186;-39
2023/11/19 06:15:43;;;;;;;18.08;16.77;;;4.90;99.90;;;;;;4907908;29;20524;-39
2023/11/19 06:18:09;;;;;;;17.70;16.60;;;4.80;99.90;;;;;;4905576;29;20616;-39
2023/11/19 06:20:35;;;;;;;17.52;16.23;;;4.80;99.90;;;;;;4902688;29;20175;-39
2023/11/19 06:23:01;;;;;;;16.97;15.77;;;4.80;99.90;;;;;;4889495;29;20252;-38
2023/11/19 06:25:27;;;;;;;16.73;15.60;;;4.80;99.90;;;;;;4890910;29;20293;-39
2023/11/19 06:27:53;;;;;;;17.30;15.90;;;4.80;99.90;;;;;;4906117;29;20182;-38
2023/11/19 06:30:19;;;;;;;16.80;15.65;;;4.80;99.90;;;;;;4907195;29;20468;-38
2023/11/19 06:32:45;;;;;;;17.02;15.88;;;4.80;99.90;;;;;;4907332;29;20182;-39
2023/11/19 06:35:13;;;;;;;17.00;15.70;;;4.80;99.90;;;;;;4905969;29;20196;-39
2023/11/19 06:37:40;;;;;;;17.02;15.73;;;4.90;99.90;;;;;;4905578;29;20230;-40
2023/11/19 06:40:06;;;;;;;16.92;15.73;;;4.90;99.90;;;;;;4903677;29;20194;-39
2023/11/19 06:42:33;;;;;;;17.20;15.93;;;4.90;99.90;;;;;;4904579;29;20321;-40
2023/11/19 06:44:58;;;;;;;15.83;14.83;;;5.00;99.90;;;;;;4905340;29;20512;-38
2023/11/19 06:47:27;;;;;;;15.67;14.67;;;5.00;99.90;;;;;;4906325;29;20468;-38
2023/11/19 06:49:54;;;;;;;15.73;14.73;;;5.00;99.90;;;;;;4903077;29;20203;-39
2023/11/19 06:52:19;;;;;;;14.90;14.00;;;5.10;99.90;;;;;;4905804;29;20202;-40
2023/11/19 06:54:45;;;;;;;14.77;13.97;;;5.10;99.90;;;;;;4905059;29;20185;-39
2023/11/19 06:57:12;;;;;;;15.40;14.50;;;5.20;99.90;;;;;;4904068;29;20193;-39
2023/11/19 06:59:39;;;;;;;15.43;14.32;;;5.20;99.90;;;;;;4905237;29;20282;-39
2023/11/19 07:02:06;;;;;;;15.40;14.50;;;5.30;99.90;;;;;;4905644;29;20331;-39
2023/11/19 07:04:33;;;;;;;14.75;13.95;;;5.30;99.90;;;;;;4905514;29;20649;-39
2023/11/19 07:06:59;;;;;;;14.70;13.90;;;5.40;99.90;;;;;;4904082;29;20211;-40
2023/11/19 07:09:25;;;;;;;14.80;14.00;;;5.40;99.90;;;;;;4903697;29;20206;-39
2023/11/19 07:11:51;;;;;;;15.93;14.93;;;5.40;99.90;;;;;;4904188;29;20186;-39
2023/11/19 07:14:18;;;;;;;14.70;13.85;;;5.40;99.90;;;;;;4905774;29;20964;-39
2023/11/19 07:16:44;;;;;;;15.85;14.82;;;5.50;99.90;;;;;;4905146;29;20194;-38
2023/11/19 07:19:09;;;;;;;16.60;15.60;;;5.50;99.90;;;;;;4903524;29;20242;-39
2023/11/19 07:21:39;;;;;;;15.37;14.57;;;5.50;99.90;;;;;;4905893;29;20861;-39
2023/11/19 07:24:05;;;;;;;15.85;14.85;;;5.50;99.90;;;;;;4904715;29;20673;-39
2023/11/19 07:26:31;;;;;;;14.90;14.10;;;5.60;99.90;;;;;;4903144;29;20726;-39
2023/11/19 07:28:56;;;;;;;15.10;14.20;;;5.50;99.90;;;;;;4904103;29;20274;-38
2023/11/19 07:31:23;;;;;;;15.40;14.60;;;5.60;99.90;;;;;;4904887;29;20262;-39
2023/11/19 07:33:49;;;;;;;15.68;14.57;;;5.60;99.90;;;;;;4902667;29;20313;-39
2023/11/19 07:36:16;;;;;;;15.25;14.35;;;5.70;99.90;;;;;;4899907;29;20735;-39
2023/11/19 07:38:42;;;;;;;15.90;14.90;;;5.70;99.90;;;;;;4903882;29;20729;-61
2023/11/19 07:41:12;;;;;;;15.45;14.52;;;5.70;99.90;;;;;;4904319;29;20190;-59
2023/11/19 07:43:40;;;;;;;15.93;15.02;;;5.80;99.90;;;;;;4905322;29;20301;-61
2023/11/19 07:46:10;;;;;;;16.40;15.40;;;5.80;99.90;;;;;;4904866;29;20191;-61
2023/11/19 07:48:36;;;;;;;15.75;14.85;;;5.80;99.90;;;;;;4904336;29;20250;-59
2023/11/19 07:51:01;;;;;;;15.07;14.20;;;5.90;99.90;;;;;;4902984;29;20210;-39
2023/11/19 07:53:27;;;;;;;14.90;14.10;;;5.90;99.90;;;;;;4903404;29;21123;-40
2023/11/19 07:55:55;;;;;;;15.98;14.93;;;5.90;99.90;;;;;;4902076;29;20522;-38
2023/11/19 07:58:22;;;;;;;15.25;14.30;;;6.00;99.90;;;;;;4882733;29;20205;-38
2023/11/19 08:00:47;;;;;;;15.50;14.50;;;6.10;99.90;;;;;;4886846;29;20199;-39
2023/11/19 08:03:13;;;;;;;15.37;14.47;;;6.10;99.90;;;;;;4887538;29;21107;-60
2023/11/19 08:05:39;;;;;;;14.60;13.80;;;6.10;99.90;;;;;;4904855;29;20264;-38
2023/11/19 08:08:05;;;;;;;15.07;14.23;;;6.10;99.90;;;;;;4883853;29;20451;-39
2023/11/19 08:10:33;;;;;;;16.83;15.73;;;6.10;99.90;;;;;;4901002;29;20214;-39
2023/11/19 08:12:58;;;;;;;15.63;14.73;;;6.10;99.90;;;;;;4881177;29;20175;-39
2023/11/19 08:15:24;;;;;;;15.53;14.63;;;6.20;99.90;;;;;;4902261;29;20249;-38
2023/11/19 08:17:49;;;;;;;14.83;14.00;;;6.20;99.90;;;;;;4903982;29;20178;-39
2023/11/19 08:20:15;;;;;;;15.03;14.13;;;6.30;99.90;;;;;;4898314;29;20195;-38
2023/11/19 08:22:42;;;;;;;15.90;14.83;;;6.30;99.90;;;;;;4864132;29;20305;-38
2023/11/19 08:25:08;;;;;;;15.57;14.57;;;6.40;99.90;;;;;;4902535;29;20652;-38
2023/11/19 08:27:34;;;;;;;15.93;15.03;;;6.40;99.90;;;;;;4902736;29;20205;-39
2023/11/19 08:30:00;;;;;;;14.67;13.87;;;6.40;99.90;;;;;;4902083;29;20973;-39
2023/11/19 08:32:26;;;;;;;14.52;13.65;;;6.50;99.90;;;;;;4883636;29;20206;-39
2023/11/19 08:34:52;;;;;;;14.70;13.90;;;6.70;99.90;;;;;;4903403;29;20245;-37
2023/11/19 08:37:20;;;;;;;15.63;14.63;;;6.90;99.90;;;;;;4902305;29;20186;-39
2023/11/19 08:39:53;;;;;;;14.53;13.70;;;7.10;99.90;;;;;;4903784;29;20438;-38
2023/11/19 08:42:19;;;;;;;15.00;14.00;;;7.40;99.90;;;;;;4881968;29;20491;-38
2023/11/19 08:44:50;;;;;;;15.83;14.90;;;7.70;99.90;;;;;;4903320;29;20446;-39
2023/11/19 08:47:17;;;;;;;14.93;14.03;;;7.90;99.90;;;;;;4902283;29;20197;-39
2023/11/19 08:49:43;;;;;;;15.07;14.17;;;8.10;99.90;;;;;;4882753;29;21183;-59
2023/11/19 08:52:10;;;;;;;15.20;14.30;;;8.10;99.90;;;;;;4900273;29;20497;-58
2023/11/19 08:54:36;;;;;;;15.23;14.27;;;8.20;99.90;;;;;;4903496;29;21262;-60
2023/11/19 08:57:03;;;;;;;15.77;14.67;;;8.20;99.90;;;;;;4900032;29;20438;-60
2023/11/19 08:59:30;;;;;;;16.23;15.33;;;8.10;99.90;;;;;;4901509;29;20419;-60
2023/11/19 09:01:57;;;;;;;14.87;13.97;;;8.40;99.90;;;;;;4898666;29;20474;-62
2023/11/19 09:04:22;;;;;;;16.70;15.70;;;8.50;99.90;;;;;;4886114;29;20434;-59
2023/11/19 09:06:49;;;;;;;15.70;14.80;;;8.60;99.90;;;;;;4901133;29;20433;-60
2023/11/19 09:09:14;;;;;;;16.20;15.30;;;8.50;99.90;;;;;;4899809;29;20182;-61
2023/11/19 09:11:40;;;;;;;16.50;15.50;;;8.50;99.90;;;;;;4898111;29;20844;-60
2023/11/19 09:14:06;;;;;;;17.17;16.17;;;8.60;99.90;;;;;;4901340;29;20198;-59
2023/11/19 09:16:32;;;;;;;15.50;14.70;;;8.60;99.90;;;;;;4900951;29;20239;-59
2023/11/19 09:18:59;;;;;;;18.13;17.03;;;8.50;99.90;;;;;;4899300;29;20182;-58
2023/11/19 09:21:29;;;;;;;16.30;15.23;;;8.50;99.90;;;;;;4900355;29;20462;-57
2023/11/19 09:23:55;;;;;;;15.20;14.30;;;8.50;99.90;;;;;;4897768;29;20521;-59
2023/11/19 09:26:21;;;;;;;25.47;23.57;;;8.40;99.90;;;;;;4895205;29;20802;-59
2023/11/19 09:28:48;;;;;;;17.87;16.60;;;8.40;99.90;;;;;;4899309;29;20423;-58
2023/11/19 09:31:18;;;;;;;20.23;19.03;;;8.40;99.90;;;;;;4871315;29;20318;-58
2023/11/19 09:33:44;;;;;;;17.83;16.57;;;8.50;99.90;;;;;;4901583;29;20462;-55
2023/11/19 09:36:13;;;;;;;16.87;15.80;;;8.50;99.90;;;;;;4902755;29;20486;-54
2023/11/19 09:38:43;;;;;;;15.83;14.90;;;8.50;99.90;;;;;;4903664;29;20418;-59
2023/11/19 09:41:11;;;;;;;16.10;15.20;;;8.50;99.90;;;;;;4903644;29;20779;-59
2023/11/19 09:43:38;;;;;;;18.10;17.00;;;8.50;99.90;;;;;;4903305;29;20485;-60
2023/11/19 09:46:11;;;;;;;15.10;14.20;;;8.50;99.90;;;;;;4902894;29;20446;-60
2023/11/19 09:48:38;;;;;;;15.93;14.97;;;8.50;99.90;;;;;;4899481;29;20453;-60
2023/11/19 09:51:05;;;;;;;15.37;14.47;;;8.60;99.90;;;;;;4903371;29;20458;-59
2023/11/19 09:53:31;;;;;;;16.03;15.03;;;8.70;99.90;;;;;;4902933;29;20438;-60
2023/11/19 09:55:59;;;;;;;14.83;14.03;;;8.70;99.90;;;;;;4902827;29;20442;-61
2023/11/19 09:58:27;;;;;;;15.03;14.13;;;8.70;99.90;;;;;;4899896;29;20477;-60
2023/11/19 10:00:53;;;;;;;15.23;14.43;;;8.80;99.90;;;;;;4900941;29;20442;-60
2023/11/19 10:03:18;;;;;;;15.77;14.80;;;8.70;99.90;;;;;;4902818;29;20427;-59
2023/11/19 10:05:44;;;;;;;16.10;15.10;;;8.80;99.90;;;;;;4896268;29;20445;-60
2023/11/19 10:08:11;;;;;;;15.87;14.87;;;8.80;99.90;;;;;;4901085;29;20792;-59
2023/11/19 10:10:37;;;;;;;17.27;16.17;;;8.80;99.90;;;;;;4898261;29;20207;-60
2023/11/19 10:13:03;;;;;;;16.70;15.60;;;8.70;99.90;;;;;;4903473;29;20453;-60
2023/11/19 10:15:35;;;;;;;17.13;16.00;;;8.80;99.90;;;;;;4902880;29;20429;-61
2023/11/19 10:18:01;;;;;;;17.20;16.20;;;8.90;99.90;;;;;;4901500;29;20549;-61
2023/11/19 10:20:26;;;;;;;17.03;16.03;;;9.00;99.90;;;;;;4901746;29;20575;-60
2023/11/19 10:22:54;;;;;;;18.07;16.67;;;9.10;99.90;;;;;;4885695;29;20195;-59
2023/11/19 10:25:27;;;;;;;16.93;15.83;;;9.20;99.90;;;;;;4902765;29;20186;-61
2023/11/19 10:27:56;;;;;;;16.40;15.30;;;9.40;99.90;;;;;;4886072;29;21116;-61
2023/11/19 10:30:29;;;;;;;17.10;16.00;;;9.50;99.90;;;;;;4902803;29;20555;-60
2023/11/19 10:33:17;;;;;;;16.40;15.30;;;9.50;99.90;;;;;;4906827;29;20481;-61
2023/11/19 10:35:59;;;;;;;15.87;14.57;;;9.40;99.90;;;;;;4906280;29;20415;-61
2023/11/19 10:38:26;;;;;;;14.07;13.27;;;9.50;99.90;;;;;;4905243;29;20423;-62
2023/11/19 10:40:53;;;;;;;13.20;12.50;;;9.80;99.90;;;;;;4904959;29;20434;-61
2023/11/19 10:43:19;;;;;;;14.00;13.30;;;10.20;99.90;;;;;;4904589;29;20477;-61
2023/11/19 10:45:45;;;;;;;14.03;13.33;;;10.50;99.90;;;;;;4904877;29;20792;-60
2023/11/19 10:48:12;;;;;;;14.70;13.93;;;10.90;99.90;;;;;;4904256;29;20422;-60
2023/11/19 10:50:39;;;;;;;15.40;14.50;;;11.10;99.90;;;;;;4905499;29;20521;-61
2023/11/19 10:53:06;;;;;;;14.77;13.87;;;11.30;99.90;;;;;;4906507;29;20437;-38
2023/11/19 10:55:38;;;;;;;13.83;12.87;;;11.50;99.90;;;;;;4905762;29;20448;-38
2023/11/19 10:58:05;;;;;;;13.40;12.60;;;12.00;99.90;;;;;;4906870;29;20422;-38
2023/11/19 11:00:52;;;;;;;11.90;11.30;;;12.60;48.60;;;;;;4906603;29;20440;-39
2023/11/19 11:03:20;;;;;;;11.80;11.20;;;12.60;20.80;;;;;;4905315;29;20956;-39
2023/11/19 11:05:50;;;;;;;11.47;10.97;;;12.70;32.50;;;;;;4906733;29;20562;-41
2023/11/19 11:08:16;;;;;;;11.70;11.10;;;12.70;6.00;;;;;;4906645;29;20497;-38
2023/11/19 11:10:52;;;;;;;11.90;11.30;;;12.80;6.20;;;;;;4906027;29;20545;-39
2023/11/19 11:13:18;;;;;;;10.30;9.90;;;12.90;5.60;;;;;;4904032;29;20846;-39
2023/11/19 11:15:46;;;;;;;11.60;10.90;;;12.70;12.40;;;;;;4905610;29;20457;-38
2023/11/19 11:18:13;;;;;;;10.90;10.40;;;12.70;20.00;;;;;;4906331;29;20937;-39
2023/11/19 11:20:39;;;;;;;12.10;11.50;;;12.70;12.80;;;;;;4889137;29;20439;-39
2023/11/19 11:23:20;;;;;;;12.10;11.50;;;12.60;16.70;;;;;;4906116;29;20441;-39
2023/11/19 11:25:49;;;;;;;11.70;11.20;;;12.50;21.10;;;;;;4906512;29;20423;-39
2023/11/19 11:28:20;;;;;;;10.50;9.97;;;12.50;11.60;;;;;;4906415;29;20418;-40
2023/11/19 11:31:11;;;;;;;11.70;11.10;;;12.50;11.00;;;;;;4906177;29;20459;-42
2023/11/19 11:34:33;;;;;;;11.00;10.50;;;12.60;11.30;;;;;;4905902;29;20411;-39
2023/11/19 11:37:34;;;;;;;11.90;11.30;;;12.50;1.00;;;;;;4811315;29;20431;-38
2023/11/19 11:40:10;;;;;;;12.93;12.23;;;12.60;4.70;;;;;;4906033;29;20453;-38
2023/11/19 11:42:36;;;;;;;12.77;12.10;;;12.60;3.90;;;;;;4905010;29;20481;-39
2023/11/19 11:45:13;;;;;;;12.10;11.60;;;12.60;6.20;;;;;;4905334;29;20598;-37
2023/11/19 11:47:49;;;;;;;12.00;11.40;;;12.60;1.00;;;;;;4905709;29;20809;-39
2023/11/19 11:50:16;;;;;;;12.33;11.53;;;12.60;1.00;;;;;;4906067;29;20521;-39
2023/11/19 11:55:28;;;;;;;11.50;11.00;;;12.60;1.00;;;;;;4905279;29;20542;-36
2023/11/19 11:57:55;;;;;;;12.47;11.77;;;12.60;1.00;;;;;;4906031;29;20475;-38
2023/11/19 12:00:29;;;;;;;12.63;11.53;;;12.70;1.00;;;;;;4905862;29;20423;-38
2023/11/19 12:03:01;;;;;;;11.50;11.00;;;13.00;1.00;;;;;;4904391;29;20422;-39
2023/11/19 12:05:28;;;;;;;12.50;11.57;;;13.80;1.00;;;;;;4904983;29;20449;-37
2023/11/19 12:08:01;;;;;;;12.40;11.80;;;14.40;1.00;;;;;;4874462;29;20438;-37
2023/11/19 12:10:42;;;;;;;13.10;12.20;;;15.10;1.00;;;;;;4905783;29;20529;-38
2023/11/19 12:13:09;;;;;;;12.33;11.70;;;15.90;25.10;;;;;;4904590;29;20427;-38
2023/11/19 12:15:57;;;;;;;12.17;11.40;;;16.10;99.90;;;;;;4905785;29;20426;-39
2023/11/19 12:18:25;;;;;;;12.17;11.37;;;16.30;1.00;;;;;;4903869;29;20434;-39
2023/11/19 12:20:51;;;;;;;12.47;11.67;;;15.80;1.00;;;;;;4904636;29;20446;-36
2023/11/19 12:23:17;;;;;;;13.07;12.27;;;15.50;99.90;;;;;;4905165;29;20948;-39
2023/11/19 12:25:45;;;;;;;13.63;12.20;;;15.20;99.90;;;;;;4905127;29;20846;-38
2023/11/19 12:28:17;;;;;;;13.07;12.30;;;15.00;1.00;;;;;;4904585;29;20179;-37
2023/11/19 12:30:43;;;;;;;12.33;11.53;;;14.80;99.90;;;;;;4904644;29;20474;-38
2023/11/19 12:33:10;;;;;;;12.67;11.77;;;14.60;1.00;;;;;;4887719;29;20442;-37
2023/11/19 12:35:43;;;;;;;12.43;11.70;;;14.80;1.00;;;;;;4904967;29;20993;-38
2023/11/19 12:38:21;;;;;;;12.70;11.87;;;15.60;99.90;;;;;;4902732;29;20434;-38
2023/11/19 12:41:01;;;;;;;12.20;11.23;;;16.40;99.90;;;;;;4904918;29;20471;-39
2023/11/19 12:43:27;;;;;;;12.73;11.93;;;16.80;1.00;;;;;;4904426;29;20474;-39